createdAt,value
2022-10-15T00:00:39.050Z,6.10
2022-10-15T00:03:05.407Z,5.53
2022-10-15T00:09:30.965Z,6.03
2022-10-15T00:11:57.692Z,6.25
2022-10-15T00:14:24.043Z,7.60
2022-10-15T00:16:50.381Z,6.18
2022-10-15T00:19:16.687Z,7.28
2022-10-15T00:21:43.074Z,8.13
2022-10-15T00:24:09.376Z,6.38
2022-10-15T00:26:35.714Z,5.78
2022-10-15T00:29:03.745Z,6.82
2022-10-15T00:31:31.780Z,8.98
2022-10-15T00:34:00.648Z,7.53
2022-10-15T00:36:32.911Z,7.97
2022-10-15T00:38:59.572Z,8.18
2022-10-15T00:41:33.012Z,9.13
2022-10-15T00:44:21.257Z,7.95
2022-10-15T00:47:03.579Z,7.93
2022-10-15T00:49:31.818Z,8.95
2022-10-15T00:52:02.104Z,6.93
2022-10-15T00:54:32.860Z,5.97
2022-10-15T00:56:59.864Z,7.85
2022-10-15T00:59:28.907Z,8.60
2022-10-15T01:01:55.332Z,8.15
2022-10-15T01:04:23.400Z,8.40
2022-10-15T01:06:49.678Z,5.85
2022-10-15T01:09:16.022Z,8.38
2022-10-15T01:11:50.181Z,8.45
2022-10-15T01:14:38.397Z,8.52
2022-10-15T01:17:07.504Z,8.50
2022-10-15T01:19:55.292Z,9.98
2022-10-15T01:22:27.653Z,9.13
2022-10-15T01:25:08.887Z,7.00
2022-10-15T01:27:45.893Z,8.55
2022-10-15T01:30:27.214Z,8.90
2022-10-15T01:33:22.551Z,10.13
2022-10-15T01:35:52.164Z,8.27
2022-10-15T01:38:47.931Z,9.70
2022-10-15T01:41:36.213Z,9.65
2022-10-15T01:44:10.806Z,9.30
2022-10-15T01:46:42.768Z,11.20
2022-10-15T01:49:12.991Z,9.77
2022-10-15T01:51:42.075Z,9.18
2022-10-15T01:54:14.275Z,10.15
2022-10-15T01:56:40.925Z,10.25
2022-10-15T01:59:10.013Z,11.25
2022-10-15T02:01:36.375Z,9.60
2022-10-15T02:04:02.996Z,11.95
2022-10-15T02:06:39.807Z,9.05
2022-10-15T02:09:27.908Z,9.68
2022-10-15T02:12:10.583Z,9.65
2022-10-15T02:14:43.696Z,8.57
2022-10-15T02:17:11.531Z,8.73
2022-10-15T02:19:41.926Z,9.50
2022-10-15T02:22:19.052Z,8.18
2022-10-15T02:24:57.523Z,7.35
2022-10-15T02:27:27.143Z,8.32
2022-10-15T02:29:56.316Z,9.32
2022-10-15T02:32:25.335Z,6.82
2022-10-15T02:34:53.512Z,7.18
2022-10-15T02:37:22.490Z,6.45
2022-10-15T02:39:48.815Z,8.45
2022-10-15T02:42:17.532Z,7.55
2022-10-15T02:44:43.865Z,6.30
2022-10-15T02:47:11.291Z,7.90
2022-10-15T02:49:37.854Z,4.50
2022-10-15T02:52:04.750Z,6.00
2022-10-15T02:54:31.028Z,5.43
2022-10-15T02:56:57.408Z,5.88
2022-10-15T02:59:23.733Z,7.05
2022-10-15T03:01:50.153Z,5.13
2022-10-15T03:04:16.472Z,5.38
2022-10-15T03:06:42.856Z,6.82
2022-10-15T03:09:09.189Z,6.40
2022-10-15T03:11:35.584Z,5.55
2022-10-15T03:14:01.877Z,5.05
2022-10-15T03:16:28.233Z,5.60
2022-10-15T03:18:54.574Z,6.85
2022-10-15T03:21:20.859Z,5.78
2022-10-15T03:23:47.275Z,4.88
2022-10-15T03:26:13.605Z,5.88
2022-10-15T03:28:39.967Z,6.95
2022-10-15T03:31:06.526Z,4.38
2022-10-15T03:33:32.912Z,6.65
2022-10-15T03:35:59.648Z,6.30
2022-10-15T03:38:25.978Z,5.18
2022-10-15T03:40:52.285Z,5.65
2022-10-15T03:43:18.575Z,5.30
2022-10-15T03:45:44.881Z,4.70
2022-10-15T03:48:11.233Z,3.72
2022-10-15T03:50:37.589Z,6.72
2022-10-15T03:53:05.346Z,5.72
2022-10-15T03:55:32.153Z,4.35
2022-10-15T03:57:58.718Z,4.38
2022-10-15T04:00:25.909Z,5.75
2022-10-15T04:02:52.204Z,4.18
2022-10-15T04:05:18.558Z,4.90
2022-10-15T04:07:44.866Z,3.70
2022-10-15T04:10:11.299Z,3.78
2022-10-15T04:12:37.658Z,5.88
2022-10-15T04:15:04.924Z,4.22
2022-10-15T04:17:31.195Z,4.03
2022-10-15T04:19:57.507Z,4.50
2022-10-15T04:22:24.830Z,5.55
2022-10-15T04:24:51.419Z,3.83
2022-10-15T04:27:17.703Z,4.03
2022-10-15T04:29:44.038Z,3.50
2022-10-15T04:32:15.125Z,4.00
2022-10-15T04:34:41.405Z,4.60
2022-10-15T04:37:07.834Z,4.28
2022-10-15T04:39:34.123Z,3.58
2022-10-15T04:42:00.436Z,6.95
2022-10-15T04:44:27.308Z,3.63
2022-10-15T04:46:53.606Z,4.18
2022-10-15T04:49:19.893Z,4.15
2022-10-15T04:51:46.209Z,3.45
2022-10-15T04:54:12.797Z,4.57
2022-10-15T04:56:39.063Z,5.07
2022-10-15T04:59:08.843Z,3.42
2022-10-15T05:01:35.490Z,3.05
2022-10-15T05:04:01.785Z,4.10
2022-10-15T05:06:28.244Z,3.10
2022-10-15T05:08:54.552Z,3.30
2022-10-15T05:11:26.827Z,3.10
2022-10-15T05:13:55.785Z,4.78
2022-10-15T05:16:27.996Z,2.67
2022-10-15T05:19:05.105Z,2.00
2022-10-15T05:21:32.791Z,2.58
2022-10-15T05:23:59.570Z,2.30
2022-10-15T05:26:28.297Z,2.13
2022-10-15T05:28:57.656Z,2.35
2022-10-15T05:31:26.679Z,2.40
2022-10-15T05:33:53.974Z,2.22
2022-10-15T05:36:28.781Z,2.22
2022-10-15T05:38:59.527Z,2.95
2022-10-15T05:41:27.256Z,2.75
2022-10-15T05:43:55.104Z,2.15
2022-10-15T05:46:22.406Z,2.10
2022-10-15T05:48:49.968Z,2.50
2022-10-15T05:51:16.680Z,2.20
2022-10-15T05:53:43.645Z,3.45
2022-10-15T05:56:10.236Z,3.15
2022-10-15T05:58:37.691Z,2.63
2022-10-15T06:01:06.851Z,2.75
2022-10-15T06:03:33.757Z,4.57
2022-10-15T06:06:00.353Z,3.20
2022-10-15T06:08:28.835Z,3.10
2022-10-15T06:10:56.094Z,3.55
2022-10-15T06:13:23.699Z,3.50
2022-10-15T06:15:50.022Z,3.72
2022-10-15T06:18:16.419Z,2.72
2022-10-15T06:20:44.153Z,3.05
2022-10-15T06:23:11.774Z,2.40
2022-10-15T06:25:38.212Z,2.83
2022-10-15T06:28:06.466Z,3.10
2022-10-15T06:30:33.472Z,2.33
2022-10-15T06:32:59.860Z,2.80
2022-10-15T06:35:27.112Z,2.13
2022-10-15T06:37:53.607Z,2.17
2022-10-15T06:40:19.967Z,2.35
2022-10-15T06:42:46.269Z,1.92
2022-10-15T06:45:14.120Z,2.35
2022-10-15T06:47:42.733Z,2.83
2022-10-15T06:50:09.399Z,2.33
2022-10-15T06:52:35.879Z,3.03
2022-10-15T06:55:03.265Z,2.53
2022-10-15T06:57:30.037Z,4.20
2022-10-15T06:59:56.422Z,6.10
2022-10-15T07:02:28.151Z,2.42
2022-10-15T07:04:54.442Z,2.58
2022-10-15T07:07:20.857Z,4.00
2022-10-15T07:09:47.440Z,2.67
2022-10-15T07:12:13.890Z,2.90
2022-10-15T07:14:42.383Z,2.70
2022-10-15T07:17:09.041Z,2.45
2022-10-15T07:19:35.400Z,4.00
2022-10-15T07:22:01.719Z,6.43
2022-10-15T07:24:28.056Z,3.13
2022-10-15T07:26:54.335Z,2.55
2022-10-15T07:29:20.617Z,2.80
2022-10-15T07:31:47.050Z,3.40
2022-10-15T07:34:13.534Z,3.60
2022-10-15T07:36:39.901Z,3.22
2022-10-15T07:39:06.207Z,3.25
2022-10-15T07:41:32.488Z,2.97
2022-10-15T07:43:58.793Z,3.10
2022-10-15T07:46:25.120Z,4.32
2022-10-15T07:48:51.469Z,3.47
2022-10-15T07:53:49.139Z,7.70
2022-10-15T07:56:16.392Z,4.18
2022-10-15T07:58:43.246Z,3.03
2022-10-15T08:01:10.887Z,4.68
2022-10-15T08:03:38.096Z,3.72
2022-10-15T08:06:06.876Z,3.75
2022-10-15T08:08:34.242Z,4.53
2022-10-15T08:11:12.950Z,6.18
2022-10-15T08:13:41.999Z,6.05
2022-10-15T08:16:10.265Z,3.50
2022-10-15T08:18:37.541Z,7.75
2022-10-15T08:21:06.032Z,4.38
2022-10-15T08:23:32.875Z,4.57
2022-10-15T08:26:00.553Z,9.95
2022-10-15T08:28:28.338Z,4.93
2022-10-15T08:30:57.688Z,4.25
2022-10-15T08:33:24.976Z,5.18
2022-10-15T08:35:52.435Z,3.05
2022-10-15T08:38:19.892Z,10.20
2022-10-15T08:40:51.692Z,4.63
2022-10-15T08:43:33.125Z,5.22
2022-10-15T08:46:02.861Z,4.35
2022-10-15T08:48:36.358Z,5.65
2022-10-15T08:51:09.583Z,3.42
2022-10-15T08:53:42.792Z,2.72
2022-10-15T08:56:34.011Z,5.78
2022-10-15T08:59:04.929Z,3.67
2022-10-15T09:01:42.326Z,3.85
2022-10-15T09:04:31.002Z,2.65
2022-10-15T09:07:09.039Z,4.65
2022-10-15T09:09:47.744Z,5.05
2022-10-15T09:12:25.561Z,4.82
2022-10-15T09:14:56.918Z,3.08
2022-10-15T09:17:25.943Z,2.60
2022-10-15T09:19:55.418Z,3.08
2022-10-15T09:22:31.932Z,2.33
2022-10-15T09:24:58.299Z,3.50
2022-10-15T09:27:32.901Z,4.60
2022-10-15T09:30:06.039Z,2.25
2022-10-15T09:32:54.277Z,3.72
2022-10-15T09:35:35.205Z,2.80
2022-10-15T09:38:23.101Z,2.88
2022-10-15T09:41:26.512Z,3.47
2022-10-15T09:43:57.541Z,2.70
2022-10-15T09:46:23.861Z,2.63
2022-10-15T09:49:02.113Z,2.75
2022-10-15T09:51:54.332Z,3.10
2022-10-15T09:54:39.368Z,2.92
2022-10-15T09:57:09.417Z,3.03
2022-10-15T09:59:35.742Z,2.10
2022-10-15T10:02:16.842Z,2.42
2022-10-15T10:04:43.449Z,1.88
2022-10-15T10:07:27.379Z,2.00
2022-10-15T10:09:56.667Z,2.63
2022-10-15T10:12:30.728Z,2.00
2022-10-15T10:15:00.128Z,2.15
2022-10-15T10:17:28.378Z,1.33
2022-10-15T10:20:09.930Z,2.60
2022-10-15T10:22:52.484Z,2.70
2022-10-15T10:25:40.194Z,2.80
2022-10-15T10:28:09.489Z,1.67
2022-10-15T10:30:38.604Z,10.05
2022-10-15T10:33:05.914Z,2.20
2022-10-15T10:35:44.994Z,2.63
2022-10-15T10:38:41.488Z,1.88
2022-10-15T10:41:10.154Z,1.67
2022-10-15T10:43:39.551Z,2.00
2022-10-15T10:46:17.979Z,2.97
2022-10-15T10:48:49.589Z,3.60
2022-10-15T10:51:19.704Z,3.38
2022-10-15T10:53:58.234Z,1.95
2022-10-15T10:56:35.581Z,1.63
2022-10-15T10:59:11.517Z,1.92
2022-10-15T11:01:37.825Z,1.67
2022-10-15T11:06:50.911Z,2.25
2022-10-15T11:09:23.006Z,1.48
2022-10-15T11:12:25.523Z,1.85
2022-10-15T11:15:05.062Z,2.72
2022-10-15T11:17:34.295Z,1.45
2022-10-15T11:20:29.274Z,5.43
2022-10-15T11:23:15.628Z,1.50
2022-10-15T11:25:54.722Z,2.63
2022-10-15T11:28:53.704Z,2.92
2022-10-15T11:31:49.105Z,2.38
2022-10-15T11:34:46.897Z,3.10
2022-10-15T11:37:41.047Z,1.70
2022-10-15T11:40:15.753Z,2.72
2022-10-15T11:42:49.936Z,2.30
2022-10-15T11:45:34.615Z,2.25
2022-10-15T11:48:18.430Z,2.67
2022-10-15T11:50:55.387Z,2.88
2022-10-15T11:53:39.411Z,2.40
2022-10-15T11:56:23.058Z,4.57
2022-10-15T12:01:43.223Z,1.88
2022-10-15T12:04:32.661Z,3.67
2022-10-15T12:07:02.412Z,3.10
2022-10-15T12:09:34.147Z,1.80
2022-10-15T12:12:11.967Z,1.98
2022-10-15T12:14:59.821Z,2.45
2022-10-15T12:17:50.708Z,2.25
2022-10-15T12:20:21.124Z,2.47
2022-10-15T12:22:47.366Z,1.92
2022-10-15T12:25:35.149Z,3.65
2022-10-15T12:28:24.805Z,5.15
2022-10-15T12:31:00.026Z,3.45
2022-10-15T12:33:33.276Z,3.92
2022-10-15T12:36:09.394Z,1.73
2022-10-15T12:38:39.947Z,4.20
2022-10-15T12:41:09.438Z,2.03
2022-10-15T12:43:41.024Z,1.83
2022-10-15T12:46:10.689Z,4.70
2022-10-15T12:48:38.084Z,1.88
2022-10-15T12:51:16.731Z,1.92
2022-10-15T12:53:44.976Z,0.95
2022-10-15T12:56:11.270Z,1.42
2022-10-15T12:58:39.738Z,2.53
2022-10-15T13:01:15.165Z,1.35
2022-10-15T13:04:01.910Z,1.50
2022-10-15T13:06:35.268Z,0.82
2022-10-15T13:09:10.855Z,1.38
2022-10-15T13:11:44.450Z,1.80
2022-10-15T13:14:30.683Z,1.08
2022-10-15T13:16:58.436Z,0.38
2022-10-15T13:20:04.490Z,1.15
2022-10-15T13:22:33.052Z,0.63
2022-10-15T13:24:59.886Z,0.73
2022-10-15T13:27:37.299Z,0.35
2022-10-15T13:30:09.458Z,0.60
2022-10-15T13:32:40.267Z,0.30
2022-10-15T13:35:13.070Z,0.50
2022-10-15T13:37:42.807Z,0.73
2022-10-15T13:40:20.331Z,1.17
2022-10-15T13:43:14.356Z,0.40
2022-10-15T13:45:56.142Z,0.30
2022-10-15T13:48:28.708Z,0.90
2022-10-15T13:50:58.704Z,1.02
2022-10-15T13:53:36.897Z,0.90
2022-10-15T13:56:27.523Z,0.13
2022-10-15T13:58:54.760Z,1.17
2022-10-15T14:01:23.244Z,0.20
2022-10-15T14:04:00.737Z,1.05
2022-10-15T14:06:31.357Z,0.82
2022-10-15T14:09:19.624Z,0.90
2022-10-15T14:11:46.014Z,1.70
2022-10-15T14:14:43.787Z,0.47
2022-10-15T14:17:17.386Z,0.93
2022-10-15T14:20:25.889Z,0.38
2022-10-15T14:22:49.719Z,0.30
2022-10-15T14:25:23.283Z,0.30
2022-10-15T14:27:49.677Z,0.63
2022-10-15T14:30:27.146Z,0.30
2022-10-15T14:32:54.626Z,0.60
2022-10-15T14:35:37.441Z,0.52
2022-10-15T14:38:15.207Z,0.77
2022-10-15T14:40:55.865Z,1.27
2022-10-15T14:43:32.169Z,0.82
2022-10-15T14:46:00.991Z,0.50
2022-10-15T14:48:38.692Z,0.30
2022-10-15T14:51:07.816Z,1.85
2022-10-15T14:53:44.135Z,0.30
2022-10-15T14:56:19.056Z,0.50
2022-10-15T14:58:53.096Z,1.55
2022-10-15T15:01:20.764Z,1.00
2022-10-15T15:03:49.988Z,0.52
2022-10-15T15:06:16.536Z,1.00
2022-10-15T15:08:42.889Z,0.40
2022-10-15T15:11:15.116Z,0.32
2022-10-15T15:13:44.039Z,5.18
2022-10-15T15:16:14.673Z,1.02
2022-10-15T15:18:46.198Z,3.60
2022-10-15T15:21:15.364Z,0.90
2022-10-15T15:23:42.677Z,1.30
2022-10-15T15:26:09.004Z,0.90
2022-10-15T15:28:35.352Z,0.70
2022-10-15T15:31:06.198Z,1.13
2022-10-15T15:33:33.274Z,1.35
2022-10-15T15:36:18.889Z,0.45
2022-10-15T15:38:50.009Z,0.70
2022-10-15T15:41:19.009Z,1.38
2022-10-15T15:43:45.815Z,0.60
2022-10-15T15:46:12.801Z,1.88
2022-10-15T15:48:39.124Z,0.65
2022-10-15T15:51:17.513Z,1.05
2022-10-15T15:53:43.852Z,0.52
2022-10-15T15:56:10.150Z,0.40
2022-10-15T15:58:36.451Z,0.60
2022-10-15T16:01:02.915Z,0.50
2022-10-15T16:03:29.219Z,2.40
2022-10-15T16:05:55.511Z,1.75
2022-10-15T16:08:21.895Z,0.73
2022-10-15T16:10:48.242Z,0.60
2022-10-15T16:13:14.645Z,0.65
2022-10-15T16:15:40.975Z,0.50
2022-10-15T16:18:07.285Z,0.60
2022-10-15T16:20:39.375Z,0.50
2022-10-15T16:23:05.860Z,1.13
2022-10-15T16:25:32.159Z,0.55
2022-10-15T16:28:01.661Z,0.65
2022-10-15T16:30:28.840Z,1.88
2022-10-15T16:32:55.432Z,1.52
2022-10-15T16:35:22.014Z,2.25
2022-10-15T16:37:48.438Z,2.00
2022-10-15T16:40:15.540Z,1.55
2022-10-15T16:42:41.885Z,2.47
2022-10-15T16:45:09.564Z,1.52
2022-10-15T16:47:35.942Z,1.77
2022-10-15T16:50:03.905Z,2.85
2022-10-15T16:52:30.232Z,2.95
2022-10-15T16:54:56.645Z,2.55
2022-10-15T16:57:22.950Z,2.78
2022-10-15T16:59:49.454Z,2.55
2022-10-15T17:02:15.787Z,5.22
2022-10-15T17:04:42.133Z,2.50
2022-10-15T17:07:08.459Z,2.70
2022-10-15T17:09:35.031Z,3.40
2022-10-15T17:12:01.675Z,2.92
2022-10-15T17:14:28.080Z,2.83
2022-10-15T17:16:54.443Z,3.25
2022-10-15T17:19:24.123Z,5.10
2022-10-15T17:21:52.303Z,1.67
2022-10-15T17:24:19.119Z,3.80
2022-10-15T17:26:46.595Z,3.88
2022-10-15T17:29:20.259Z,3.20
2022-10-15T17:31:48.121Z,3.63
2022-10-15T17:34:14.860Z,1.65
2022-10-15T17:36:45.415Z,2.75
2022-10-15T17:39:14.071Z,2.55
2022-10-15T17:41:40.471Z,3.33
2022-10-15T17:44:06.902Z,6.65
2022-10-15T17:46:33.538Z,3.95
2022-10-15T17:49:00.647Z,2.55
2022-10-15T17:51:29.605Z,2.67
2022-10-15T17:53:56.063Z,2.20
2022-10-15T17:56:33.858Z,2.50
2022-10-15T17:59:01.740Z,1.60
2022-10-15T18:01:56.674Z,2.08
2022-10-15T18:04:21.303Z,2.40
2022-10-15T18:06:47.648Z,2.55
2022-10-15T18:09:13.955Z,3.55
2022-10-15T18:11:40.441Z,4.00
2022-10-15T18:14:06.815Z,2.10
2022-10-15T18:16:33.188Z,2.13
2022-10-15T18:18:59.674Z,2.30
2022-10-15T18:21:28.138Z,2.00
2022-10-15T18:23:56.257Z,4.03
2022-10-15T18:26:23.218Z,1.85
2022-10-15T18:28:51.885Z,1.80
2022-10-15T18:31:19.003Z,2.22
2022-10-15T18:33:51.596Z,2.13
2022-10-15T18:36:28.806Z,2.67
2022-10-15T18:38:56.105Z,1.98
2022-10-15T18:41:28.145Z,1.63
2022-10-15T18:43:57.100Z,4.20
2022-10-15T18:46:23.930Z,2.95
2022-10-15T18:48:50.989Z,4.50
2022-10-15T18:51:18.043Z,1.95
2022-10-15T18:53:44.554Z,4.15
2022-10-15T18:56:14.509Z,2.15
2022-10-15T18:58:45.392Z,2.05
2022-10-15T19:01:28.980Z,3.28
2022-10-15T19:03:57.246Z,3.80
2022-10-15T19:06:27.153Z,3.28
2022-10-15T19:08:57.062Z,5.50
2022-10-15T19:11:23.948Z,2.47
2022-10-15T19:13:50.339Z,4.03
2022-10-15T19:16:16.725Z,2.90
2022-10-15T19:18:43.003Z,2.65
2022-10-15T19:21:11.769Z,2.50
2022-10-15T19:23:38.137Z,5.70
2022-10-15T19:26:08.661Z,2.75
2022-10-15T19:28:35.404Z,3.80
2022-10-15T19:31:03.718Z,5.35
2022-10-15T19:33:31.032Z,3.72
2022-10-15T19:35:57.771Z,5.07
2022-10-15T19:38:25.318Z,2.88
2022-10-15T19:40:52.048Z,3.20
2022-10-15T19:43:20.459Z,4.13
2022-10-15T19:45:47.637Z,3.33
2022-10-15T19:48:16.796Z,2.70
2022-10-15T19:50:44.622Z,2.10
2022-10-15T19:53:13.937Z,2.90
2022-10-15T19:55:40.290Z,5.82
2022-10-15T19:58:06.938Z,4.80
2022-10-15T20:00:33.878Z,2.30
2022-10-15T20:03:00.213Z,4.68
2022-10-15T20:05:26.545Z,5.20
2022-10-15T20:07:52.881Z,4.97
2022-10-15T20:10:23.582Z,4.35
2022-10-15T20:12:51.955Z,3.50
2022-10-15T20:15:18.386Z,3.08
2022-10-15T20:17:44.741Z,2.30
2022-10-15T20:20:11.027Z,4.82
2022-10-15T20:22:37.310Z,3.97
2022-10-15T20:25:03.933Z,2.90
2022-10-15T20:27:30.219Z,2.17
2022-10-15T20:29:56.531Z,2.33
2022-10-15T20:32:34.383Z,4.65
2022-10-15T20:35:03.068Z,3.85
2022-10-15T20:37:29.523Z,2.20
2022-10-15T20:42:23.326Z,2.47
2022-10-15T20:44:49.712Z,2.90
2022-10-15T20:47:16.413Z,2.88
2022-10-15T20:49:46.569Z,2.60
2022-10-15T20:52:14.280Z,3.33
2022-10-15T20:54:40.596Z,2.92
2022-10-15T20:57:07.303Z,2.42
2022-10-15T20:59:33.631Z,1.85
2022-10-15T21:01:59.986Z,3.72
2022-10-15T21:04:26.369Z,1.83
2022-10-15T21:06:52.676Z,1.83
2022-10-15T21:09:18.991Z,2.47
2022-10-15T21:11:46.527Z,4.65
2022-10-15T21:14:13.845Z,2.28
2022-10-15T21:16:41.042Z,2.40
2022-10-15T21:19:07.650Z,3.08
2022-10-15T21:21:33.973Z,3.22
2022-10-15T21:24:00.511Z,2.22
2022-10-15T21:26:26.852Z,2.75
2022-10-15T21:28:57.763Z,3.42
2022-10-15T21:31:25.361Z,3.78
2022-10-15T21:33:52.443Z,2.22
2022-10-15T21:36:24.952Z,1.88
2022-10-15T21:38:55.427Z,3.00
2022-10-15T21:41:22.512Z,4.93
2022-10-15T21:46:20.535Z,1.85
2022-10-15T21:48:47.105Z,2.17
2022-10-15T21:51:23.696Z,1.55
2022-10-15T21:53:50.149Z,3.17
2022-10-15T21:56:16.787Z,2.53
2022-10-15T21:58:43.751Z,2.88
2022-10-15T22:01:17.167Z,2.40
2022-10-15T22:03:45.592Z,8.98
2022-10-15T22:06:12.724Z,3.67
2022-10-15T22:08:39.273Z,2.95
2022-10-15T22:11:20.714Z,3.60
2022-10-15T22:13:49.174Z,4.95
2022-10-15T22:16:17.399Z,2.55
2022-10-15T22:18:44.308Z,3.35
2022-10-15T22:21:23.510Z,2.63
2022-10-15T22:23:55.033Z,2.83
2022-10-15T22:26:24.877Z,4.72
2022-10-15T22:28:56.870Z,4.72
2022-10-15T22:31:23.780Z,3.80
2022-10-15T22:33:50.263Z,3.63
2022-10-15T22:36:22.943Z,5.65
2022-10-15T22:41:27.344Z,2.92
2022-10-15T22:43:53.683Z,5.22
2022-10-15T22:46:19.997Z,3.75
2022-10-15T22:48:48.772Z,1.90
2022-10-15T22:51:15.667Z,2.70
2022-10-15T22:53:42.788Z,2.05
2022-10-15T22:56:12.637Z,7.10
2022-10-15T22:58:38.986Z,5.13
2022-10-15T23:01:19.488Z,1.90
2022-10-15T23:03:47.980Z,4.55
2022-10-15T23:06:15.299Z,2.30
2022-10-15T23:08:42.342Z,3.42
2022-10-15T23:11:20.831Z,3.55
2022-10-15T23:13:52.078Z,4.47
2022-10-15T23:16:25.091Z,3.42
2022-10-15T23:18:54.441Z,2.97
2022-10-15T23:21:27.438Z,3.20
2022-10-15T23:23:53.692Z,5.82
2022-10-15T23:26:20.278Z,4.82
2022-10-15T23:28:51.348Z,4.70
2022-10-15T23:31:19.443Z,5.05
2022-10-15T23:33:46.372Z,6.47
2022-10-15T23:36:13.878Z,5.40
2022-10-15T23:38:40.373Z,4.45
2022-10-15T23:41:08.587Z,4.47
2022-10-15T23:43:34.874Z,3.95
2022-10-15T23:46:01.485Z,7.45
2022-10-15T23:48:28.505Z,6.03
2022-10-15T23:50:59.382Z,5.88
2022-10-15T23:53:29.032Z,5.35
2022-10-15T23:55:55.321Z,5.78
2022-10-15T23:58:21.659Z,6.78
